sensor_id;sensor_type;location;lat;lon;timestamp;P1;durP1;ratioP1;P2;durP2;ratioP2
17177;SDS011;8704;52.006;4.374;2023-05-08T00:00:41;62.97;;;56.13;;
17177;SDS011;8704;52.006;4.374;2023-05-08T00:03:09;64.85;;;57.78;;
17177;SDS011;8704;52.006;4.374;2023-05-08T00:05:39;66.65;;;59.47;;
17177;SDS011;8704;52.006;4.374;2023-05-08T00:08:09;63.05;;;56.30;;
17177;SDS011;8704;52.006;4.374;2023-05-08T00:10:36;72.97;;;65.30;;
17177;SDS011;8704;52.006;4.374;2023-05-08T00:13:04;68.88;;;61.38;;
17177;SDS011;8704;52.006;4.374;2023-05-08T00:15:32;71.57;;;63.90;;
17177;SDS011;8704;52.006;4.374;2023-05-08T00:18:02;67.30;;;60.30;;
17177;SDS011;8704;52.006;4.374;2023-05-08T00:20:30;73.65;;;65.70;;
17177;SDS011;8704;52.006;4.374;2023-05-08T00:22:59;82.00;;;70.88;;
17177;SDS011;8704;52.006;4.374;2023-05-08T00:25:28;76.43;;;68.28;;
17177;SDS011;8704;52.006;4.374;2023-05-08T00:27:57;82.53;;;73.60;;
17177;SDS011;8704;52.006;4.374;2023-05-08T00:30:25;84.60;;;75.55;;
17177;SDS011;8704;52.006;4.374;2023-05-08T00:32:53;84.32;;;75.03;;
17177;SDS011;8704;52.006;4.374;2023-05-08T00:35:21;76.95;;;68.55;;
17177;SDS011;8704;52.006;4.374;2023-05-08T00:37:49;77.43;;;68.93;;
17177;SDS011;8704;52.006;4.374;2023-05-08T00:40:17;92.75;;;77.45;;
17177;SDS011;8704;52.006;4.374;2023-05-08T00:42:47;80.32;;;71.53;;
17177;SDS011;8704;52.006;4.374;2023-05-08T00:45:15;82.78;;;68.80;;
17177;SDS011;8704;52.006;4.374;2023-05-08T00:47:43;87.28;;;72.45;;
17177;SDS011;8704;52.006;4.374;2023-05-08T00:50:12;81.35;;;70.75;;
17177;SDS011;8704;52.006;4.374;2023-05-08T00:52:40;82.05;;;72.80;;
17177;SDS011;8704;52.006;4.374;2023-05-08T00:55:09;77.55;;;69.05;;
17177;SDS011;8704;52.006;4.374;2023-05-08T00:57:37;73.65;;;65.50;;
17177;SDS011;8704;52.006;4.374;2023-05-08T01:00:08;82.30;;;72.03;;
17177;SDS011;8704;52.006;4.374;2023-05-08T01:02:36;80.00;;;71.38;;
17177;SDS011;8704;52.006;4.374;2023-05-08T01:05:06;78.55;;;69.93;;
17177;SDS011;8704;52.006;4.374;2023-05-08T01:07:34;70.78;;;63.28;;
17177;SDS011;8704;52.006;4.374;2023-05-08T01:10:04;75.63;;;67.47;;
17177;SDS011;8704;52.006;4.374;2023-05-08T01:12:33;79.95;;;71.18;;
17177;SDS011;8704;52.006;4.374;2023-05-08T01:15:10;76.15;;;67.68;;
17177;SDS011;8704;52.006;4.374;2023-05-08T01:17:42;74.65;;;65.82;;
17177;SDS011;8704;52.006;4.374;2023-05-08T01:20:16;71.47;;;63.60;;
17177;SDS011;8704;52.006;4.374;2023-05-08T01:22:52;77.13;;;66.28;;
17177;SDS011;8704;52.006;4.374;2023-05-08T01:28:20;73.75;;;65.80;;
17177;SDS011;8704;52.006;4.374;2023-05-08T01:31:06;74.13;;;66.00;;
17177;SDS011;8704;52.006;4.374;2023-05-08T01:33:39;73.07;;;65.13;;
17177;SDS011;8704;52.006;4.374;2023-05-08T01:36:11;77.90;;;69.35;;
17177;SDS011;8704;52.006;4.374;2023-05-08T01:38:45;79.43;;;70.82;;
17177;SDS011;8704;52.006;4.374;2023-05-08T01:41:15;68.72;;;61.38;;
17177;SDS011;8704;52.006;4.374;2023-05-08T01:43:47;67.93;;;60.65;;
17177;SDS011;8704;52.006;4.374;2023-05-08T01:46:18;70.47;;;62.90;;
17177;SDS011;8704;52.006;4.374;2023-05-08T01:48:50;70.85;;;63.08;;
17177;SDS011;8704;52.006;4.374;2023-05-08T01:51:24;76.80;;;67.57;;
17177;SDS011;8704;52.006;4.374;2023-05-08T01:53:55;72.10;;;64.35;;
17177;SDS011;8704;52.006;4.374;2023-05-08T01:56:26;74.65;;;66.88;;
17177;SDS011;8704;52.006;4.374;2023-05-08T01:58:56;75.15;;;67.03;;
17177;SDS011;8704;52.006;4.374;2023-05-08T02:01:25;72.20;;;62.78;;
17177;SDS011;8704;52.006;4.374;2023-05-08T02:03:56;77.65;;;67.18;;
17177;SDS011;8704;52.006;4.374;2023-05-08T02:06:25;69.10;;;61.30;;
17177;SDS011;8704;52.006;4.374;2023-05-08T02:08:54;84.07;;;72.38;;
17177;SDS011;8704;52.006;4.374;2023-05-08T02:11:23;76.20;;;67.28;;
17177;SDS011;8704;52.006;4.374;2023-05-08T02:13:52;78.97;;;68.30;;
17177;SDS011;8704;52.006;4.374;2023-05-08T02:16:20;76.93;;;67.15;;
17177;SDS011;8704;52.006;4.374;2023-05-08T02:18:50;76.75;;;67.25;;
17177;SDS011;8704;52.006;4.374;2023-05-08T02:21:20;81.45;;;68.53;;
17177;SDS011;8704;52.006;4.374;2023-05-08T02:23:49;79.63;;;66.68;;
17177;SDS011;8704;52.006;4.374;2023-05-08T02:26:18;77.93;;;68.97;;
17177;SDS011;8704;52.006;4.374;2023-05-08T02:28:47;71.35;;;63.53;;
17177;SDS011;8704;52.006;4.374;2023-05-08T02:31:16;77.10;;;66.97;;
17177;SDS011;8704;52.006;4.374;2023-05-08T02:33:45;80.38;;;69.07;;
17177;SDS011;8704;52.006;4.374;2023-05-08T02:36:14;75.88;;;67.57;;
17177;SDS011;8704;52.006;4.374;2023-05-08T02:38:45;83.93;;;72.25;;
17177;SDS011;8704;52.006;4.374;2023-05-08T02:41:14;79.40;;;70.72;;
17177;SDS011;8704;52.006;4.374;2023-05-08T02:43:45;82.20;;;70.22;;
17177;SDS011;8704;52.006;4.374;2023-05-08T02:46:13;79.00;;;68.97;;
17177;SDS011;8704;52.006;4.374;2023-05-08T02:48:45;79.97;;;67.63;;
17177;SDS011;8704;52.006;4.374;2023-05-08T02:51:17;80.05;;;68.35;;
17177;SDS011;8704;52.006;4.374;2023-05-08T02:53:49;75.57;;;67.05;;
17177;SDS011;8704;52.006;4.374;2023-05-08T02:56:23;86.55;;;74.60;;
17177;SDS011;8704;52.006;4.374;2023-05-08T02:58:56;79.95;;;68.40;;
17177;SDS011;8704;52.006;4.374;2023-05-08T03:01:28;106.47;;;79.15;;
17177;SDS011;8704;52.006;4.374;2023-05-08T03:04:00;125.97;;;85.13;;
17177;SDS011;8704;52.006;4.374;2023-05-08T03:06:30;148.50;;;96.60;;
17177;SDS011;8704;52.006;4.374;2023-05-08T03:09:02;132.43;;;95.70;;
17177;SDS011;8704;52.006;4.374;2023-05-08T03:11:39;133.57;;;92.07;;
17177;SDS011;8704;52.006;4.374;2023-05-08T03:14:09;128.32;;;95.35;;
17177;SDS011;8704;52.006;4.374;2023-05-08T03:16:38;142.45;;;98.82;;
17177;SDS011;8704;52.006;4.374;2023-05-08T03:19:10;123.10;;;92.50;;
17177;SDS011;8704;52.006;4.374;2023-05-08T03:21:41;143.57;;;92.20;;
17177;SDS011;8704;52.006;4.374;2023-05-08T03:24:12;196.57;;;91.30;;
17177;SDS011;8704;52.006;4.374;2023-05-08T03:26:42;181.88;;;92.65;;
17177;SDS011;8704;52.006;4.374;2023-05-08T03:29:12;119.40;;;84.32;;
17177;SDS011;8704;52.006;4.374;2023-05-08T03:31:40;182.02;;;98.13;;
17177;SDS011;8704;52.006;4.374;2023-05-08T03:34:10;131.45;;;93.88;;
17177;SDS011;8704;52.006;4.374;2023-05-08T03:36:39;152.50;;;90.18;;
17177;SDS011;8704;52.006;4.374;2023-05-08T03:39:07;148.68;;;93.45;;
17177;SDS011;8704;52.006;4.374;2023-05-08T03:41:37;129.95;;;88.80;;
17177;SDS011;8704;52.006;4.374;2023-05-08T03:44:05;144.98;;;92.05;;
17177;SDS011;8704;52.006;4.374;2023-05-08T03:46:34;142.65;;;93.18;;
17177;SDS011;8704;52.006;4.374;2023-05-08T03:49:03;138.30;;;90.50;;
17177;SDS011;8704;52.006;4.374;2023-05-08T03:51:31;181.80;;;93.05;;
17177;SDS011;8704;52.006;4.374;2023-05-08T03:54:02;177.48;;;98.57;;
17177;SDS011;8704;52.006;4.374;2023-05-08T03:56:30;152.65;;;89.78;;
17177;SDS011;8704;52.006;4.374;2023-05-08T03:59:02;135.32;;;83.43;;
17177;SDS011;8704;52.006;4.374;2023-05-08T04:01:36;132.30;;;85.63;;
17177;SDS011;8704;52.006;4.374;2023-05-08T04:04:06;173.73;;;89.72;;
17177;SDS011;8704;52.006;4.374;2023-05-08T04:06:39;139.35;;;87.15;;
17177;SDS011;8704;52.006;4.374;2023-05-08T04:09:16;148.07;;;93.03;;
17177;SDS011;8704;52.006;4.374;2023-05-08T04:11:51;132.20;;;87.55;;
17177;SDS011;8704;52.006;4.374;2023-05-08T04:14:29;123.65;;;83.18;;
17177;SDS011;8704;52.006;4.374;2023-05-08T04:17:02;139.43;;;90.72;;
17177;SDS011;8704;52.006;4.374;2023-05-08T04:19:37;130.05;;;86.07;;
17177;SDS011;8704;52.006;4.374;2023-05-08T04:22:09;113.65;;;76.07;;
17177;SDS011;8704;52.006;4.374;2023-05-08T04:24:39;116.75;;;78.78;;
17177;SDS011;8704;52.006;4.374;2023-05-08T04:27:12;132.65;;;80.35;;
17177;SDS011;8704;52.006;4.374;2023-05-08T04:29:43;144.00;;;86.15;;
17177;SDS011;8704;52.006;4.374;2023-05-08T04:32:11;131.10;;;80.57;;
17177;SDS011;8704;52.006;4.374;2023-05-08T04:34:39;128.52;;;74.75;;
17177;SDS011;8704;52.006;4.374;2023-05-08T04:37:08;114.28;;;70.20;;
17177;SDS011;8704;52.006;4.374;2023-05-08T04:39:36;127.85;;;75.35;;
17177;SDS011;8704;52.006;4.374;2023-05-08T04:42:03;99.93;;;66.40;;
17177;SDS011;8704;52.006;4.374;2023-05-08T04:44:31;96.63;;;64.10;;
17177;SDS011;8704;52.006;4.374;2023-05-08T04:47:01;90.63;;;60.90;;
17177;SDS011;8704;52.006;4.374;2023-05-08T04:49:29;76.55;;;51.63;;
17177;SDS011;8704;52.006;4.374;2023-05-08T04:51:57;64.20;;;39.35;;
17177;SDS011;8704;52.006;4.374;2023-05-08T04:54:25;77.40;;;51.33;;
17177;SDS011;8704;52.006;4.374;2023-05-08T04:56:53;78.35;;;49.53;;
17177;SDS011;8704;52.006;4.374;2023-05-08T04:59:21;85.43;;;48.60;;
17177;SDS011;8704;52.006;4.374;2023-05-08T05:01:50;85.05;;;52.88;;
17177;SDS011;8704;52.006;4.374;2023-05-08T05:04:20;90.55;;;50.05;;
17177;SDS011;8704;52.006;4.374;2023-05-08T05:06:48;90.03;;;50.67;;
17177;SDS011;8704;52.006;4.374;2023-05-08T05:09:16;94.50;;;50.97;;
17177;SDS011;8704;52.006;4.374;2023-05-08T05:11:44;87.15;;;49.95;;
17177;SDS011;8704;52.006;4.374;2023-05-08T05:14:12;98.28;;;53.60;;
17177;SDS011;8704;52.006;4.374;2023-05-08T05:16:40;103.43;;;57.85;;
17177;SDS011;8704;52.006;4.374;2023-05-08T05:19:08;98.18;;;52.67;;
17177;SDS011;8704;52.006;4.374;2023-05-08T05:21:37;95.38;;;52.50;;
17177;SDS011;8704;52.006;4.374;2023-05-08T05:24:05;94.50;;;54.35;;
17177;SDS011;8704;52.006;4.374;2023-05-08T05:26:33;104.85;;;58.97;;
17177;SDS011;8704;52.006;4.374;2023-05-08T05:29:02;102.93;;;55.83;;
17177;SDS011;8704;52.006;4.374;2023-05-08T05:31:30;105.75;;;58.60;;
17177;SDS011;8704;52.006;4.374;2023-05-08T05:33:58;99.93;;;55.90;;
17177;SDS011;8704;52.006;4.374;2023-05-08T05:36:26;98.88;;;54.78;;
17177;SDS011;8704;52.006;4.374;2023-05-08T05:38:55;99.20;;;52.83;;
17177;SDS011;8704;52.006;4.374;2023-05-08T05:41:23;90.38;;;50.72;;
17177;SDS011;8704;52.006;4.374;2023-05-08T05:43:51;96.90;;;53.80;;
17177;SDS011;8704;52.006;4.374;2023-05-08T05:46:19;92.55;;;54.58;;
17177;SDS011;8704;52.006;4.374;2023-05-08T05:48:51;78.78;;;50.30;;
17177;SDS011;8704;52.006;4.374;2023-05-08T05:51:19;83.47;;;49.28;;
17177;SDS011;8704;52.006;4.374;2023-05-08T05:53:47;86.95;;;50.40;;
17177;SDS011;8704;52.006;4.374;2023-05-08T05:56:16;83.35;;;53.45;;
17177;SDS011;8704;52.006;4.374;2023-05-08T05:58:44;92.63;;;50.45;;
17177;SDS011;8704;52.006;4.374;2023-05-08T06:01:12;83.55;;;48.55;;
17177;SDS011;8704;52.006;4.374;2023-05-08T06:03:40;87.15;;;51.72;;
17177;SDS011;8704;52.006;4.374;2023-05-08T06:06:09;83.70;;;49.08;;
17177;SDS011;8704;52.006;4.374;2023-05-08T06:08:37;74.70;;;45.63;;
17177;SDS011;8704;52.006;4.374;2023-05-08T06:11:05;76.15;;;46.08;;
17177;SDS011;8704;52.006;4.374;2023-05-08T06:13:34;89.70;;;50.38;;
17177;SDS011;8704;52.006;4.374;2023-05-08T06:16:05;92.07;;;48.42;;
17177;SDS011;8704;52.006;4.374;2023-05-08T06:18:34;86.78;;;45.80;;
17177;SDS011;8704;52.006;4.374;2023-05-08T06:21:02;85.15;;;43.63;;
17177;SDS011;8704;52.006;4.374;2023-05-08T06:23:30;85.50;;;41.72;;
17177;SDS011;8704;52.006;4.374;2023-05-08T06:25:58;85.50;;;43.80;;
17177;SDS011;8704;52.006;4.374;2023-05-08T06:28:26;75.45;;;40.72;;
17177;SDS011;8704;52.006;4.374;2023-05-08T06:30:56;72.93;;;38.35;;
17177;SDS011;8704;52.006;4.374;2023-05-08T06:33:24;64.53;;;37.53;;
17177;SDS011;8704;52.006;4.374;2023-05-08T06:35:52;73.75;;;37.45;;
17177;SDS011;8704;52.006;4.374;2023-05-08T06:38:20;65.10;;;36.95;;
17177;SDS011;8704;52.006;4.374;2023-05-08T06:40:48;61.65;;;36.70;;
17177;SDS011;8704;52.006;4.374;2023-05-08T06:43:16;56.58;;;35.28;;
17177;SDS011;8704;52.006;4.374;2023-05-08T06:45:46;46.83;;;31.52;;
17177;SDS011;8704;52.006;4.374;2023-05-08T06:48:15;44.97;;;30.55;;
17177;SDS011;8704;52.006;4.374;2023-05-08T06:50:43;46.72;;;31.77;;
17177;SDS011;8704;52.006;4.374;2023-05-08T06:53:12;44.58;;;30.80;;
17177;SDS011;8704;52.006;4.374;2023-05-08T06:55:41;49.28;;;34.50;;
17177;SDS011;8704;52.006;4.374;2023-05-08T06:58:09;51.40;;;34.28;;
17177;SDS011;8704;52.006;4.374;2023-05-08T07:00:37;49.97;;;33.30;;
17177;SDS011;8704;52.006;4.374;2023-05-08T07:03:05;45.13;;;33.63;;
17177;SDS011;8704;52.006;4.374;2023-05-08T07:05:34;50.95;;;35.33;;
17177;SDS011;8704;52.006;4.374;2023-05-08T07:08:03;52.92;;;37.28;;
17177;SDS011;8704;52.006;4.374;2023-05-08T07:10:31;54.42;;;36.67;;
17177;SDS011;8704;52.006;4.374;2023-05-08T07:12:59;52.22;;;35.28;;
17177;SDS011;8704;52.006;4.374;2023-05-08T07:15:27;57.97;;;37.92;;
17177;SDS011;8704;52.006;4.374;2023-05-08T07:17:57;49.92;;;34.97;;
17177;SDS011;8704;52.006;4.374;2023-05-08T07:20:25;45.08;;;30.27;;
17177;SDS011;8704;52.006;4.374;2023-05-08T07:22:55;45.25;;;31.90;;
17177;SDS011;8704;52.006;4.374;2023-05-08T07:25:22;41.05;;;29.95;;
17177;SDS011;8704;52.006;4.374;2023-05-08T07:27:51;45.70;;;32.65;;
17177;SDS011;8704;52.006;4.374;2023-05-08T07:30:19;47.30;;;33.20;;
17177;SDS011;8704;52.006;4.374;2023-05-08T07:32:47;49.10;;;34.03;;
17177;SDS011;8704;52.006;4.374;2023-05-08T07:35:15;49.25;;;33.97;;
17177;SDS011;8704;52.006;4.374;2023-05-08T07:37:43;56.47;;;38.03;;
17177;SDS011;8704;52.006;4.374;2023-05-08T07:40:12;58.45;;;41.10;;
17177;SDS011;8704;52.006;4.374;2023-05-08T07:42:40;63.33;;;42.85;;
17177;SDS011;8704;52.006;4.374;2023-05-08T07:45:09;71.03;;;44.13;;
17177;SDS011;8704;52.006;4.374;2023-05-08T07:47:47;73.72;;;45.83;;
17177;SDS011;8704;52.006;4.374;2023-05-08T07:50:15;72.32;;;45.50;;
17177;SDS011;8704;52.006;4.374;2023-05-08T07:52:44;83.65;;;52.25;;
17177;SDS011;8704;52.006;4.374;2023-05-08T07:55:16;88.20;;;50.40;;
17177;SDS011;8704;52.006;4.374;2023-05-08T07:57:45;87.72;;;51.40;;
17177;SDS011;8704;52.006;4.374;2023-05-08T08:00:13;89.18;;;52.33;;
17177;SDS011;8704;52.006;4.374;2023-05-08T08:02:42;84.82;;;54.28;;
17177;SDS011;8704;52.006;4.374;2023-05-08T08:05:11;88.03;;;53.35;;
17177;SDS011;8704;52.006;4.374;2023-05-08T08:07:39;79.68;;;52.17;;
17177;SDS011;8704;52.006;4.374;2023-05-08T08:10:08;81.72;;;51.70;;
17177;SDS011;8704;52.006;4.374;2023-05-08T08:12:37;82.68;;;53.40;;
17177;SDS011;8704;52.006;4.374;2023-05-08T08:15:06;82.20;;;53.20;;
17177;SDS011;8704;52.006;4.374;2023-05-08T08:17:34;95.05;;;57.15;;
17177;SDS011;8704;52.006;4.374;2023-05-08T08:20:03;93.05;;;56.75;;
17177;SDS011;8704;52.006;4.374;2023-05-08T08:22:32;99.53;;;58.35;;
17177;SDS011;8704;52.006;4.374;2023-05-08T08:25:01;102.07;;;59.30;;
17177;SDS011;8704;52.006;4.374;2023-05-08T08:27:29;96.30;;;58.83;;
17177;SDS011;8704;52.006;4.374;2023-05-08T08:29:59;99.35;;;59.38;;
17177;SDS011;8704;52.006;4.374;2023-05-08T08:32:41;109.43;;;60.80;;
17177;SDS011;8704;52.006;4.374;2023-05-08T08:35:09;110.78;;;61.05;;
17177;SDS011;8704;52.006;4.374;2023-05-08T08:37:38;112.03;;;62.47;;
17177;SDS011;8704;52.006;4.374;2023-05-08T08:40:07;111.68;;;63.95;;
17177;SDS011;8704;52.006;4.374;2023-05-08T08:42:35;115.30;;;66.75;;
17177;SDS011;8704;52.006;4.374;2023-05-08T08:45:05;122.57;;;65.32;;
17177;SDS011;8704;52.006;4.374;2023-05-08T08:47:34;121.07;;;64.95;;
17177;SDS011;8704;52.006;4.374;2023-05-08T08:50:04;116.55;;;64.30;;
17177;SDS011;8704;52.006;4.374;2023-05-08T08:52:40;115.47;;;64.93;;
17177;SDS011;8704;52.006;4.374;2023-05-08T08:55:14;111.72;;;59.95;;
17177;SDS011;8704;52.006;4.374;2023-05-08T08:57:44;113.43;;;58.03;;
17177;SDS011;8704;52.006;4.374;2023-05-08T09:00:21;104.43;;;56.53;;
17177;SDS011;8704;52.006;4.374;2023-05-08T09:02:53;86.35;;;50.67;;
17177;SDS011;8704;52.006;4.374;2023-05-08T09:05:21;90.05;;;51.33;;
17177;SDS011;8704;52.006;4.374;2023-05-08T09:07:50;81.35;;;47.88;;
17177;SDS011;8704;52.006;4.374;2023-05-08T09:10:22;81.13;;;48.17;;
17177;SDS011;8704;52.006;4.374;2023-05-08T09:12:50;78.78;;;49.42;;
17177;SDS011;8704;52.006;4.374;2023-05-08T09:15:20;80.75;;;46.85;;
17177;SDS011;8704;52.006;4.374;2023-05-08T09:17:48;78.35;;;48.03;;
17177;SDS011;8704;52.006;4.374;2023-05-08T09:20:16;68.38;;;45.65;;
17177;SDS011;8704;52.006;4.374;2023-05-08T09:22:46;70.55;;;45.55;;
17177;SDS011;8704;52.006;4.374;2023-05-08T09:25:15;63.28;;;43.50;;
17177;SDS011;8704;52.006;4.374;2023-05-08T09:27:44;56.17;;;41.40;;
17177;SDS011;8704;52.006;4.374;2023-05-08T09:30:12;55.13;;;42.75;;
17177;SDS011;8704;52.006;4.374;2023-05-08T09:32:42;54.47;;;41.63;;
17177;SDS011;8704;52.006;4.374;2023-05-08T09:35:11;49.90;;;42.33;;
17177;SDS011;8704;52.006;4.374;2023-05-08T09:37:42;46.50;;;40.50;;
17177;SDS011;8704;52.006;4.374;2023-05-08T09:40:15;48.88;;;41.22;;
17177;SDS011;8704;52.006;4.374;2023-05-08T09:42:44;45.92;;;40.30;;
17177;SDS011;8704;52.006;4.374;2023-05-08T09:45:24;50.60;;;42.60;;
17177;SDS011;8704;52.006;4.374;2023-05-08T09:47:55;49.05;;;41.42;;
17177;SDS011;8704;52.006;4.374;2023-05-08T09:50:23;49.83;;;43.08;;
17177;SDS011;8704;52.006;4.374;2023-05-08T09:52:53;52.97;;;44.65;;
17177;SDS011;8704;52.006;4.374;2023-05-08T09:55:21;55.15;;;45.30;;
17177;SDS011;8704;52.006;4.374;2023-05-08T09:57:53;55.90;;;46.80;;
17177;SDS011;8704;52.006;4.374;2023-05-08T10:00:23;57.35;;;48.85;;
17177;SDS011;8704;52.006;4.374;2023-05-08T10:02:53;60.75;;;53.60;;
17177;SDS011;8704;52.006;4.374;2023-05-08T10:05:25;54.65;;;47.92;;
17177;SDS011;8704;52.006;4.374;2023-05-08T10:10:25;50.33;;;44.88;;
17177;SDS011;8704;52.006;4.374;2023-05-08T10:12:54;53.47;;;47.80;;
17177;SDS011;8704;52.006;4.374;2023-05-08T10:15:23;55.35;;;49.42;;
17177;SDS011;8704;52.006;4.374;2023-05-08T10:17:58;53.78;;;47.83;;
17177;SDS011;8704;52.006;4.374;2023-05-08T10:20:30;47.28;;;42.42;;
17177;SDS011;8704;52.006;4.374;2023-05-08T10:22:59;45.75;;;41.00;;
17177;SDS011;8704;52.006;4.374;2023-05-08T10:25:30;45.22;;;40.38;;
17177;SDS011;8704;52.006;4.374;2023-05-08T10:28:04;40.38;;;36.10;;
17177;SDS011;8704;52.006;4.374;2023-05-08T10:30:37;36.83;;;33.15;;
17177;SDS011;8704;52.006;4.374;2023-05-08T10:33:10;36.80;;;32.95;;
17177;SDS011;8704;52.006;4.374;2023-05-08T10:35:43;37.33;;;33.30;;
17177;SDS011;8704;52.006;4.374;2023-05-08T10:38:12;42.15;;;37.75;;
17177;SDS011;8704;52.006;4.374;2023-05-08T10:40:42;47.72;;;42.83;;
17177;SDS011;8704;52.006;4.374;2023-05-08T10:43:11;53.88;;;48.17;;
17177;SDS011;8704;52.006;4.374;2023-05-08T10:45:39;53.85;;;48.10;;
17177;SDS011;8704;52.006;4.374;2023-05-08T10:48:10;49.70;;;44.65;;
17177;SDS011;8704;52.006;4.374;2023-05-08T10:50:50;46.90;;;41.67;;
17177;SDS011;8704;52.006;4.374;2023-05-08T10:53:29;45.85;;;40.92;;
17177;SDS011;8704;52.006;4.374;2023-05-08T10:56:01;38.85;;;34.75;;
17177;SDS011;8704;52.006;4.374;2023-05-08T10:58:30;37.15;;;33.25;;
17177;SDS011;8704;52.006;4.374;2023-05-08T11:01:12;37.92;;;33.83;;
17177;SDS011;8704;52.006;4.374;2023-05-08T11:03:43;42.53;;;37.97;;
17177;SDS011;8704;52.006;4.374;2023-05-08T11:08:50;42.15;;;37.95;;
17177;SDS011;8704;52.006;4.374;2023-05-08T11:11:23;44.72;;;39.95;;
17177;SDS011;8704;52.006;4.374;2023-05-08T11:13:58;44.30;;;39.47;;
17177;SDS011;8704;52.006;4.374;2023-05-08T11:19:31;37.47;;;33.47;;
17177;SDS011;8704;52.006;4.374;2023-05-08T11:24:59;38.25;;;34.08;;
17177;SDS011;8704;52.006;4.374;2023-05-08T11:27:32;46.38;;;38.92;;
17177;SDS011;8704;52.006;4.374;2023-05-08T11:30:17;45.90;;;39.97;;
17177;SDS011;8704;52.006;4.374;2023-05-08T11:35:50;51.30;;;43.30;;
17177;SDS011;8704;52.006;4.374;2023-05-08T11:38:25;51.63;;;45.92;;
17177;SDS011;8704;52.006;4.374;2023-05-08T11:41:00;53.05;;;47.20;;
17177;SDS011;8704;52.006;4.374;2023-05-08T11:46:37;48.67;;;43.67;;
17177;SDS011;8704;52.006;4.374;2023-05-08T11:49:10;53.03;;;44.95;;
17177;SDS011;8704;52.006;4.374;2023-05-08T11:51:43;51.00;;;43.38;;
17177;SDS011;8704;52.006;4.374;2023-05-08T11:54:13;47.28;;;40.38;;
17177;SDS011;8704;52.006;4.374;2023-05-08T11:56:44;43.00;;;36.78;;
17177;SDS011;8704;52.006;4.374;2023-05-08T11:59:13;43.63;;;38.92;;
17177;SDS011;8704;52.006;4.374;2023-05-08T12:01:42;46.90;;;41.78;;
17177;SDS011;8704;52.006;4.374;2023-05-08T12:04:25;43.78;;;39.15;;
17177;SDS011;8704;52.006;4.374;2023-05-08T12:06:56;42.97;;;38.30;;
17177;SDS011;8704;52.006;4.374;2023-05-08T12:09:25;40.25;;;35.92;;
17177;SDS011;8704;52.006;4.374;2023-05-08T12:11:57;40.15;;;35.92;;
17177;SDS011;8704;52.006;4.374;2023-05-08T12:14:25;43.13;;;38.45;;
17177;SDS011;8704;52.006;4.374;2023-05-08T12:16:53;40.50;;;36.15;;
17177;SDS011;8704;52.006;4.374;2023-05-08T12:19:21;42.53;;;36.17;;
17177;SDS011;8704;52.006;4.374;2023-05-08T12:21:49;37.30;;;33.50;;
17177;SDS011;8704;52.006;4.374;2023-05-08T12:24:18;38.58;;;34.50;;
17177;SDS011;8704;52.006;4.374;2023-05-08T12:26:51;40.35;;;35.20;;
17177;SDS011;8704;52.006;4.374;2023-05-08T12:31:50;41.42;;;36.92;;
17177;SDS011;8704;52.006;4.374;2023-05-08T12:34:20;44.03;;;38.22;;
17177;SDS011;8704;52.006;4.374;2023-05-08T12:36:48;44.05;;;35.83;;
17177;SDS011;8704;52.006;4.374;2023-05-08T12:39:33;44.33;;;35.60;;
17177;SDS011;8704;52.006;4.374;2023-05-08T12:42:02;42.50;;;35.00;;
17177;SDS011;8704;52.006;4.374;2023-05-08T12:44:30;46.25;;;37.20;;
17177;SDS011;8704;52.006;4.374;2023-05-08T12:46:58;51.72;;;37.75;;
17177;SDS011;8704;52.006;4.374;2023-05-08T12:49:27;50.65;;;38.97;;
17177;SDS011;8704;52.006;4.374;2023-05-08T12:51:59;51.22;;;38.83;;
17177;SDS011;8704;52.006;4.374;2023-05-08T12:54:32;55.05;;;36.28;;
17177;SDS011;8704;52.006;4.374;2023-05-08T12:57:09;48.83;;;36.05;;
17177;SDS011;8704;52.006;4.374;2023-05-08T12:59:38;55.03;;;39.90;;
17177;SDS011;8704;52.006;4.374;2023-05-08T13:02:13;61.13;;;41.85;;
17177;SDS011;8704;52.006;4.374;2023-05-08T13:04:42;63.30;;;43.78;;
17177;SDS011;8704;52.006;4.374;2023-05-08T13:07:10;65.28;;;43.83;;
17177;SDS011;8704;52.006;4.374;2023-05-08T13:09:39;68.40;;;48.00;;
17177;SDS011;8704;52.006;4.374;2023-05-08T13:12:22;69.63;;;47.95;;
17177;SDS011;8704;52.006;4.374;2023-05-08T13:14:50;71.55;;;47.78;;
17177;SDS011;8704;52.006;4.374;2023-05-08T13:17:18;72.57;;;51.03;;
17177;SDS011;8704;52.006;4.374;2023-05-08T13:19:46;74.05;;;50.50;;
17177;SDS011;8704;52.006;4.374;2023-05-08T13:22:14;82.40;;;53.47;;
17177;SDS011;8704;52.006;4.374;2023-05-08T13:24:43;84.90;;;55.15;;
17177;SDS011;8704;52.006;4.374;2023-05-08T13:27:11;85.38;;;56.10;;
17177;SDS011;8704;52.006;4.374;2023-05-08T13:29:39;93.07;;;57.28;;
17177;SDS011;8704;52.006;4.374;2023-05-08T13:32:07;84.05;;;54.90;;
17177;SDS011;8704;52.006;4.374;2023-05-08T13:34:36;90.55;;;57.33;;
17177;SDS011;8704;52.006;4.374;2023-05-08T13:37:15;86.38;;;53.83;;
17177;SDS011;8704;52.006;4.374;2023-05-08T13:39:44;78.25;;;51.60;;
17177;SDS011;8704;52.006;4.374;2023-05-08T13:42:12;77.18;;;51.25;;
17177;SDS011;8704;52.006;4.374;2023-05-08T13:44:40;75.70;;;50.72;;
17177;SDS011;8704;52.006;4.374;2023-05-08T13:47:08;69.60;;;47.45;;
17177;SDS011;8704;52.006;4.374;2023-05-08T13:49:37;67.50;;;46.90;;
17177;SDS011;8704;52.006;4.374;2023-05-08T13:52:04;61.83;;;43.72;;
17177;SDS011;8704;52.006;4.374;2023-05-08T13:54:32;64.45;;;44.72;;
17177;SDS011;8704;52.006;4.374;2023-05-08T13:57:02;62.03;;;43.78;;
17177;SDS011;8704;52.006;4.374;2023-05-08T13:59:30;56.75;;;41.95;;
17177;SDS011;8704;52.006;4.374;2023-05-08T14:01:58;58.35;;;40.88;;
17177;SDS011;8704;52.006;4.374;2023-05-08T14:04:26;57.97;;;40.28;;
17177;SDS011;8704;52.006;4.374;2023-05-08T14:06:54;60.00;;;42.78;;
17177;SDS011;8704;52.006;4.374;2023-05-08T14:09:22;62.35;;;43.33;;
17177;SDS011;8704;52.006;4.374;2023-05-08T14:11:50;59.47;;;39.75;;
17177;SDS011;8704;52.006;4.374;2023-05-08T14:14:19;56.63;;;39.03;;
17177;SDS011;8704;52.006;4.374;2023-05-08T14:16:47;54.28;;;38.83;;
17177;SDS011;8704;52.006;4.374;2023-05-08T14:19:16;51.10;;;38.10;;
17177;SDS011;8704;52.006;4.374;2023-05-08T14:21:44;52.28;;;35.72;;
17177;SDS011;8704;52.006;4.374;2023-05-08T14:24:12;47.28;;;33.95;;
17177;SDS011;8704;52.006;4.374;2023-05-08T14:26:40;49.88;;;35.20;;
17177;SDS011;8704;52.006;4.374;2023-05-08T14:29:10;46.58;;;35.88;;
17177;SDS011;8704;52.006;4.374;2023-05-08T14:31:39;58.58;;;39.80;;
17177;SDS011;8704;52.006;4.374;2023-05-08T14:34:07;62.08;;;42.38;;
17177;SDS011;8704;52.006;4.374;2023-05-08T14:36:35;56.15;;;40.60;;
17177;SDS011;8704;52.006;4.374;2023-05-08T14:39:03;61.63;;;41.78;;
17177;SDS011;8704;52.006;4.374;2023-05-08T14:41:31;62.92;;;43.03;;
17177;SDS011;8704;52.006;4.374;2023-05-08T14:43:59;65.22;;;43.42;;
17177;SDS011;8704;52.006;4.374;2023-05-08T14:46:27;65.38;;;45.22;;
17177;SDS011;8704;52.006;4.374;2023-05-08T14:48:57;66.38;;;44.67;;
17177;SDS011;8704;52.006;4.374;2023-05-08T14:51:25;64.22;;;43.03;;
17177;SDS011;8704;52.006;4.374;2023-05-08T14:53:53;62.67;;;42.47;;
17177;SDS011;8704;52.006;4.374;2023-05-08T14:56:21;62.22;;;42.28;;
17177;SDS011;8704;52.006;4.374;2023-05-08T14:58:50;67.28;;;45.15;;
17177;SDS011;8704;52.006;4.374;2023-05-08T15:01:20;65.18;;;43.75;;
17177;SDS011;8704;52.006;4.374;2023-05-08T15:03:48;61.15;;;41.80;;
17177;SDS011;8704;52.006;4.374;2023-05-08T15:06:20;64.32;;;44.75;;
17177;SDS011;8704;52.006;4.374;2023-05-08T15:08:50;61.00;;;42.67;;
17177;SDS011;8704;52.006;4.374;2023-05-08T15:11:18;65.43;;;45.42;;